sensor_id;sensor_type;location;lat;lon;timestamp;P1;durP1;ratioP1;P2;durP2;ratioP2
11743;SDS011;5929;51.906;7.674;2023-04-07T00:00:43;20.00;;;14.68;;
11743;SDS011;5929;51.906;7.674;2023-04-07T00:03:10;19.10;;;14.18;;
11743;SDS011;5929;51.906;7.674;2023-04-07T00:05:37;18.98;;;13.88;;
11743;SDS011;5929;51.906;7.674;2023-04-07T00:08:05;19.83;;;14.13;;
11743;SDS011;5929;51.906;7.674;2023-04-07T00:10:32;19.50;;;14.18;;
11743;SDS011;5929;51.906;7.674;2023-04-07T00:12:59;19.75;;;14.07;;
11743;SDS011;5929;51.906;7.674;2023-04-07T00:15:26;18.80;;;13.15;;
11743;SDS011;5929;51.906;7.674;2023-04-07T00:17:53;20.45;;;14.30;;
11743;SDS011;5929;51.906;7.674;2023-04-07T00:20:20;18.08;;;13.82;;
11743;SDS011;5929;51.906;7.674;2023-04-07T00:22:47;21.33;;;14.63;;
11743;SDS011;5929;51.906;7.674;2023-04-07T00:25:15;20.30;;;14.82;;
11743;SDS011;5929;51.906;7.674;2023-04-07T00:27:42;21.50;;;14.07;;
11743;SDS011;5929;51.906;7.674;2023-04-07T00:30:09;20.13;;;14.27;;
11743;SDS011;5929;51.906;7.674;2023-04-07T00:32:36;20.90;;;15.23;;
11743;SDS011;5929;51.906;7.674;2023-04-07T00:35:03;22.08;;;15.40;;
11743;SDS011;5929;51.906;7.674;2023-04-07T00:37:31;21.13;;;15.43;;
11743;SDS011;5929;51.906;7.674;2023-04-07T00:39:57;20.25;;;14.95;;
11743;SDS011;5929;51.906;7.674;2023-04-07T00:42:26;22.08;;;15.35;;
11743;SDS011;5929;51.906;7.674;2023-04-07T00:44:52;21.67;;;15.70;;
11743;SDS011;5929;51.906;7.674;2023-04-07T00:47:19;22.77;;;15.15;;
11743;SDS011;5929;51.906;7.674;2023-04-07T00:49:46;22.15;;;15.90;;
11743;SDS011;5929;51.906;7.674;2023-04-07T00:52:13;22.65;;;16.02;;
11743;SDS011;5929;51.906;7.674;2023-04-07T00:54:40;21.45;;;15.73;;
11743;SDS011;5929;51.906;7.674;2023-04-07T00:57:07;24.73;;;15.85;;
11743;SDS011;5929;51.906;7.674;2023-04-07T00:59:35;24.02;;;16.23;;
11743;SDS011;5929;51.906;7.674;2023-04-07T01:02:04;22.25;;;15.68;;
11743;SDS011;5929;51.906;7.674;2023-04-07T01:04:42;23.30;;;15.65;;
11743;SDS011;5929;51.906;7.674;2023-04-07T01:07:14;19.50;;;14.25;;
11743;SDS011;5929;51.906;7.674;2023-04-07T01:09:45;22.27;;;15.38;;
11743;SDS011;5929;51.906;7.674;2023-04-07T01:12:20;23.67;;;16.50;;
11743;SDS011;5929;51.906;7.674;2023-04-07T01:14:57;21.90;;;15.35;;
11743;SDS011;5929;51.906;7.674;2023-04-07T01:17:32;25.98;;;15.77;;
11743;SDS011;5929;51.906;7.674;2023-04-07T01:20:02;21.00;;;15.10;;
11743;SDS011;5929;51.906;7.674;2023-04-07T01:22:32;21.98;;;14.48;;
11743;SDS011;5929;51.906;7.674;2023-04-07T01:25:19;21.45;;;15.95;;
11743;SDS011;5929;51.906;7.674;2023-04-07T01:27:54;21.23;;;15.15;;
11743;SDS011;5929;51.906;7.674;2023-04-07T01:30:29;20.98;;;14.18;;
11743;SDS011;5929;51.906;7.674;2023-04-07T01:32:57;21.35;;;14.18;;
11743;SDS011;5929;51.906;7.674;2023-04-07T01:35:25;19.13;;;13.60;;
11743;SDS011;5929;51.906;7.674;2023-04-07T01:37:55;22.00;;;14.35;;
11743;SDS011;5929;51.906;7.674;2023-04-07T01:40:24;19.90;;;14.70;;
11743;SDS011;5929;51.906;7.674;2023-04-07T01:42:52;20.60;;;13.77;;
11743;SDS011;5929;51.906;7.674;2023-04-07T01:45:20;21.88;;;14.57;;
11743;SDS011;5929;51.906;7.674;2023-04-07T01:47:49;21.17;;;13.93;;
11743;SDS011;5929;51.906;7.674;2023-04-07T01:50:19;21.00;;;14.63;;
11743;SDS011;5929;51.906;7.674;2023-04-07T01:52:47;21.15;;;13.90;;
11743;SDS011;5929;51.906;7.674;2023-04-07T01:55:14;20.45;;;13.90;;
11743;SDS011;5929;51.906;7.674;2023-04-07T01:57:41;20.05;;;14.38;;
11743;SDS011;5929;51.906;7.674;2023-04-07T02:00:08;21.65;;;14.23;;
11743;SDS011;5929;51.906;7.674;2023-04-07T02:02:37;20.40;;;13.52;;
11743;SDS011;5929;51.906;7.674;2023-04-07T02:05:11;20.02;;;14.18;;
11743;SDS011;5929;51.906;7.674;2023-04-07T02:07:41;18.30;;;13.38;;
11743;SDS011;5929;51.906;7.674;2023-04-07T02:10:15;22.45;;;14.93;;
11743;SDS011;5929;51.906;7.674;2023-04-07T02:12:45;23.13;;;14.38;;
11743;SDS011;5929;51.906;7.674;2023-04-07T02:15:13;17.88;;;13.02;;
11743;SDS011;5929;51.906;7.674;2023-04-07T02:17:42;18.13;;;13.45;;
11743;SDS011;5929;51.906;7.674;2023-04-07T02:20:14;20.73;;;13.95;;
11743;SDS011;5929;51.906;7.674;2023-04-07T02:22:42;19.08;;;13.80;;
11743;SDS011;5929;51.906;7.674;2023-04-07T02:25:22;22.38;;;14.60;;
11743;SDS011;5929;51.906;7.674;2023-04-07T02:27:50;18.23;;;13.88;;
11743;SDS011;5929;51.906;7.674;2023-04-07T02:30:17;20.40;;;14.70;;
11743;SDS011;5929;51.906;7.674;2023-04-07T02:32:45;21.00;;;13.90;;
11743;SDS011;5929;51.906;7.674;2023-04-07T02:35:12;21.30;;;14.27;;
11743;SDS011;5929;51.906;7.674;2023-04-07T02:37:40;20.35;;;14.35;;
11743;SDS011;5929;51.906;7.674;2023-04-07T02:40:07;22.27;;;14.52;;
11743;SDS011;5929;51.906;7.674;2023-04-07T02:42:34;20.38;;;14.25;;
11743;SDS011;5929;51.906;7.674;2023-04-07T02:45:01;20.98;;;15.07;;
11743;SDS011;5929;51.906;7.674;2023-04-07T02:47:28;20.27;;;14.40;;
11743;SDS011;5929;51.906;7.674;2023-04-07T02:49:55;21.10;;;15.18;;
11743;SDS011;5929;51.906;7.674;2023-04-07T02:52:23;22.25;;;14.35;;
11743;SDS011;5929;51.906;7.674;2023-04-07T02:54:50;20.63;;;14.43;;
11743;SDS011;5929;51.906;7.674;2023-04-07T02:57:17;18.80;;;13.68;;
11743;SDS011;5929;51.906;7.674;2023-04-07T02:59:44;19.60;;;13.35;;
11743;SDS011;5929;51.906;7.674;2023-04-07T03:02:11;23.85;;;14.80;;
11743;SDS011;5929;51.906;7.674;2023-04-07T03:04:38;19.73;;;13.98;;
11743;SDS011;5929;51.906;7.674;2023-04-07T03:07:05;21.25;;;15.23;;
11743;SDS011;5929;51.906;7.674;2023-04-07T03:09:33;21.25;;;14.07;;
11743;SDS011;5929;51.906;7.674;2023-04-07T03:12:00;19.60;;;14.27;;
11743;SDS011;5929;51.906;7.674;2023-04-07T03:14:27;20.63;;;14.18;;
11743;SDS011;5929;51.906;7.674;2023-04-07T03:16:54;20.35;;;14.18;;
11743;SDS011;5929;51.906;7.674;2023-04-07T03:19:21;19.35;;;14.23;;
11743;SDS011;5929;51.906;7.674;2023-04-07T03:21:48;19.58;;;13.30;;
11743;SDS011;5929;51.906;7.674;2023-04-07T03:24:15;20.63;;;14.50;;
11743;SDS011;5929;51.906;7.674;2023-04-07T03:26:43;20.58;;;14.18;;
11743;SDS011;5929;51.906;7.674;2023-04-07T03:29:10;21.00;;;13.75;;
11743;SDS011;5929;51.906;7.674;2023-04-07T03:31:37;19.13;;;13.43;;
11743;SDS011;5929;51.906;7.674;2023-04-07T03:34:04;17.70;;;13.27;;
11743;SDS011;5929;51.906;7.674;2023-04-07T03:36:31;20.17;;;13.18;;
11743;SDS011;5929;51.906;7.674;2023-04-07T03:38:58;21.35;;;13.55;;
11743;SDS011;5929;51.906;7.674;2023-04-07T03:41:24;21.55;;;15.15;;
11743;SDS011;5929;51.906;7.674;2023-04-07T03:43:52;18.00;;;12.85;;
11743;SDS011;5929;51.906;7.674;2023-04-07T03:46:19;20.00;;;14.38;;
11743;SDS011;5929;51.906;7.674;2023-04-07T03:48:46;20.10;;;13.77;;
11743;SDS011;5929;51.906;7.674;2023-04-07T03:51:13;18.75;;;13.85;;
11743;SDS011;5929;51.906;7.674;2023-04-07T03:53:40;20.27;;;14.18;;
11743;SDS011;5929;51.906;7.674;2023-04-07T03:56:07;19.38;;;13.95;;
11743;SDS011;5929;51.906;7.674;2023-04-07T03:58:34;16.45;;;12.63;;
11743;SDS011;5929;51.906;7.674;2023-04-07T04:01:02;19.25;;;13.65;;
11743;SDS011;5929;51.906;7.674;2023-04-07T04:03:29;18.40;;;13.75;;
11743;SDS011;5929;51.906;7.674;2023-04-07T04:05:55;19.58;;;12.52;;
11743;SDS011;5929;51.906;7.674;2023-04-07T04:08:22;22.30;;;14.02;;
11743;SDS011;5929;51.906;7.674;2023-04-07T04:10:49;18.63;;;12.65;;
11743;SDS011;5929;51.906;7.674;2023-04-07T04:13:16;18.75;;;12.68;;
11743;SDS011;5929;51.906;7.674;2023-04-07T04:15:43;19.45;;;13.18;;
11743;SDS011;5929;51.906;7.674;2023-04-07T04:18:11;16.83;;;12.65;;
11743;SDS011;5929;51.906;7.674;2023-04-07T04:20:38;17.60;;;13.13;;
11743;SDS011;5929;51.906;7.674;2023-04-07T04:23:05;21.35;;;13.30;;
11743;SDS011;5929;51.906;7.674;2023-04-07T04:25:32;17.98;;;12.77;;
11743;SDS011;5929;51.906;7.674;2023-04-07T04:27:59;17.00;;;11.65;;
11743;SDS011;5929;51.906;7.674;2023-04-07T04:30:25;15.35;;;11.07;;
11743;SDS011;5929;51.906;7.674;2023-04-07T04:32:52;17.15;;;11.52;;
11743;SDS011;5929;51.906;7.674;2023-04-07T04:35:21;15.88;;;11.88;;
11743;SDS011;5929;51.906;7.674;2023-04-07T04:37:48;15.73;;;10.77;;
11743;SDS011;5929;51.906;7.674;2023-04-07T04:40:15;16.55;;;11.95;;
11743;SDS011;5929;51.906;7.674;2023-04-07T04:42:42;16.38;;;11.13;;
11743;SDS011;5929;51.906;7.674;2023-04-07T04:45:09;16.08;;;11.52;;
11743;SDS011;5929;51.906;7.674;2023-04-07T04:47:36;15.88;;;11.07;;
11743;SDS011;5929;51.906;7.674;2023-04-07T04:50:03;16.23;;;11.50;;
11743;SDS011;5929;51.906;7.674;2023-04-07T04:52:32;14.50;;;10.65;;
11743;SDS011;5929;51.906;7.674;2023-04-07T04:54:59;14.73;;;11.20;;
11743;SDS011;5929;51.906;7.674;2023-04-07T04:57:26;15.43;;;11.30;;
11743;SDS011;5929;51.906;7.674;2023-04-07T04:59:53;17.05;;;11.50;;
11743;SDS011;5929;51.906;7.674;2023-04-07T05:02:20;15.90;;;11.00;;
11743;SDS011;5929;51.906;7.674;2023-04-07T05:04:47;14.05;;;10.55;;
11743;SDS011;5929;51.906;7.674;2023-04-07T05:07:14;13.90;;;10.65;;
11743;SDS011;5929;51.906;7.674;2023-04-07T05:09:42;15.90;;;10.85;;
11743;SDS011;5929;51.906;7.674;2023-04-07T05:12:09;14.45;;;9.85;;
11743;SDS011;5929;51.906;7.674;2023-04-07T05:14:36;13.80;;;9.90;;
11743;SDS011;5929;51.906;7.674;2023-04-07T05:17:03;15.85;;;9.98;;
11743;SDS011;5929;51.906;7.674;2023-04-07T05:19:30;17.83;;;9.88;;
11743;SDS011;5929;51.906;7.674;2023-04-07T05:21:57;14.23;;;9.27;;
11743;SDS011;5929;51.906;7.674;2023-04-07T05:24:25;14.02;;;9.43;;
11743;SDS011;5929;51.906;7.674;2023-04-07T05:26:55;13.55;;;9.93;;
11743;SDS011;5929;51.906;7.674;2023-04-07T05:29:22;12.90;;;8.55;;
11743;SDS011;5929;51.906;7.674;2023-04-07T05:31:49;15.32;;;10.85;;
11743;SDS011;5929;51.906;7.674;2023-04-07T05:34:16;14.18;;;9.43;;
11743;SDS011;5929;51.906;7.674;2023-04-07T05:36:43;17.30;;;9.05;;
11743;SDS011;5929;51.906;7.674;2023-04-07T05:39:10;12.63;;;9.50;;
11743;SDS011;5929;51.906;7.674;2023-04-07T05:41:39;14.55;;;9.05;;
11743;SDS011;5929;51.906;7.674;2023-04-07T05:44:07;13.18;;;9.52;;
11743;SDS011;5929;51.906;7.674;2023-04-07T05:46:34;12.43;;;8.70;;
11743;SDS011;5929;51.906;7.674;2023-04-07T05:49:01;13.15;;;9.23;;
11743;SDS011;5929;51.906;7.674;2023-04-07T05:51:28;14.70;;;9.32;;
11743;SDS011;5929;51.906;7.674;2023-04-07T05:53:57;12.95;;;8.75;;
11743;SDS011;5929;51.906;7.674;2023-04-07T05:56:29;13.50;;;8.63;;
11743;SDS011;5929;51.906;7.674;2023-04-07T05:58:56;12.85;;;9.45;;
11743;SDS011;5929;51.906;7.674;2023-04-07T06:01:27;13.07;;;9.27;;
11743;SDS011;5929;51.906;7.674;2023-04-07T06:03:54;15.23;;;11.75;;
11743;SDS011;5929;51.906;7.674;2023-04-07T06:06:22;16.92;;;11.55;;
11743;SDS011;5929;51.906;7.674;2023-04-07T06:08:50;13.40;;;10.25;;
11743;SDS011;5929;51.906;7.674;2023-04-07T06:11:17;13.75;;;9.82;;
11743;SDS011;5929;51.906;7.674;2023-04-07T06:13:44;13.90;;;9.95;;
11743;SDS011;5929;51.906;7.674;2023-04-07T06:16:11;13.60;;;10.13;;
11743;SDS011;5929;51.906;7.674;2023-04-07T06:18:40;14.60;;;10.23;;
11743;SDS011;5929;51.906;7.674;2023-04-07T06:21:07;12.73;;;9.02;;
11743;SDS011;5929;51.906;7.674;2023-04-07T06:23:34;14.73;;;9.52;;
11743;SDS011;5929;51.906;7.674;2023-04-07T06:26:01;12.88;;;9.32;;
11743;SDS011;5929;51.906;7.674;2023-04-07T06:28:28;14.50;;;9.68;;
11743;SDS011;5929;51.906;7.674;2023-04-07T06:30:55;14.05;;;9.52;;
11743;SDS011;5929;51.906;7.674;2023-04-07T06:33:24;13.30;;;9.05;;
11743;SDS011;5929;51.906;7.674;2023-04-07T06:35:53;13.50;;;9.65;;
11743;SDS011;5929;51.906;7.674;2023-04-07T06:38:20;13.57;;;9.75;;
11743;SDS011;5929;51.906;7.674;2023-04-07T06:40:47;13.95;;;9.63;;
11743;SDS011;5929;51.906;7.674;2023-04-07T06:43:14;13.82;;;10.18;;
11743;SDS011;5929;51.906;7.674;2023-04-07T06:45:41;15.38;;;10.50;;
11743;SDS011;5929;51.906;7.674;2023-04-07T06:48:08;14.13;;;8.77;;
11743;SDS011;5929;51.906;7.674;2023-04-07T06:50:35;13.23;;;8.82;;
11743;SDS011;5929;51.906;7.674;2023-04-07T06:53:03;14.20;;;9.90;;
11743;SDS011;5929;51.906;7.674;2023-04-07T06:55:30;13.68;;;9.73;;
11743;SDS011;5929;51.906;7.674;2023-04-07T06:57:58;13.85;;;9.70;;
11743;SDS011;5929;51.906;7.674;2023-04-07T07:00:24;13.20;;;8.95;;
11743;SDS011;5929;51.906;7.674;2023-04-07T07:02:54;13.63;;;10.32;;
11743;SDS011;5929;51.906;7.674;2023-04-07T07:05:21;12.95;;;9.18;;
11743;SDS011;5929;51.906;7.674;2023-04-07T07:07:48;12.70;;;9.73;;
11743;SDS011;5929;51.906;7.674;2023-04-07T07:10:16;14.20;;;9.48;;
11743;SDS011;5929;51.906;7.674;2023-04-07T07:12:44;12.15;;;9.10;;
11743;SDS011;5929;51.906;7.674;2023-04-07T07:15:11;11.90;;;8.23;;
11743;SDS011;5929;51.906;7.674;2023-04-07T07:17:38;12.70;;;8.95;;
11743;SDS011;5929;51.906;7.674;2023-04-07T07:20:05;11.60;;;8.48;;
11743;SDS011;5929;51.906;7.674;2023-04-07T07:22:32;12.43;;;9.02;;
11743;SDS011;5929;51.906;7.674;2023-04-07T07:24:59;12.82;;;9.43;;
11743;SDS011;5929;51.906;7.674;2023-04-07T07:27:28;14.10;;;9.18;;
11743;SDS011;5929;51.906;7.674;2023-04-07T07:29:57;13.50;;;9.18;;
11743;SDS011;5929;51.906;7.674;2023-04-07T07:32:23;13.57;;;9.68;;
11743;SDS011;5929;51.906;7.674;2023-04-07T07:34:50;13.40;;;10.07;;
11743;SDS011;5929;51.906;7.674;2023-04-07T07:37:17;14.18;;;9.65;;
11743;SDS011;5929;51.906;7.674;2023-04-07T07:39:44;12.98;;;9.30;;
11743;SDS011;5929;51.906;7.674;2023-04-07T07:42:12;11.82;;;8.63;;
11743;SDS011;5929;51.906;7.674;2023-04-07T07:44:41;14.90;;;8.98;;
11743;SDS011;5929;51.906;7.674;2023-04-07T07:47:08;11.90;;;9.07;;
11743;SDS011;5929;51.906;7.674;2023-04-07T07:49:36;10.60;;;8.02;;
11743;SDS011;5929;51.906;7.674;2023-04-07T07:52:03;11.88;;;8.55;;
11743;SDS011;5929;51.906;7.674;2023-04-07T07:54:30;12.50;;;8.40;;
11743;SDS011;5929;51.906;7.674;2023-04-07T07:56:57;11.73;;;8.40;;
11743;SDS011;5929;51.906;7.674;2023-04-07T07:59:24;12.75;;;9.05;;
11743;SDS011;5929;51.906;7.674;2023-04-07T08:01:52;12.82;;;9.15;;
11743;SDS011;5929;51.906;7.674;2023-04-07T08:04:19;12.05;;;8.60;;
11743;SDS011;5929;51.906;7.674;2023-04-07T08:06:47;15.15;;;8.52;;
11743;SDS011;5929;51.906;7.674;2023-04-07T08:09:14;13.30;;;9.10;;
11743;SDS011;5929;51.906;7.674;2023-04-07T08:11:41;12.15;;;8.52;;
11743;SDS011;5929;51.906;7.674;2023-04-07T08:14:08;12.32;;;8.82;;
11743;SDS011;5929;51.906;7.674;2023-04-07T08:16:41;12.07;;;9.25;;
11743;SDS011;5929;51.906;7.674;2023-04-07T08:19:11;13.20;;;9.23;;
11743;SDS011;5929;51.906;7.674;2023-04-07T08:21:38;12.25;;;9.40;;
11743;SDS011;5929;51.906;7.674;2023-04-07T08:24:07;11.25;;;8.68;;
11743;SDS011;5929;51.906;7.674;2023-04-07T08:26:35;13.32;;;10.07;;
11743;SDS011;5929;51.906;7.674;2023-04-07T08:29:02;10.70;;;8.32;;
11743;SDS011;5929;51.906;7.674;2023-04-07T08:31:29;10.23;;;8.02;;
11743;SDS011;5929;51.906;7.674;2023-04-07T08:33:55;11.38;;;8.15;;
11743;SDS011;5929;51.906;7.674;2023-04-07T08:36:24;11.00;;;8.20;;
11743;SDS011;5929;51.906;7.674;2023-04-07T08:38:52;10.50;;;8.45;;
11743;SDS011;5929;51.906;7.674;2023-04-07T08:41:23;11.70;;;8.60;;
11743;SDS011;5929;51.906;7.674;2023-04-07T08:43:54;10.88;;;8.45;;
11743;SDS011;5929;51.906;7.674;2023-04-07T08:46:23;12.48;;;8.48;;
11743;SDS011;5929;51.906;7.674;2023-04-07T08:48:51;15.18;;;8.77;;
11743;SDS011;5929;51.906;7.674;2023-04-07T08:51:22;12.60;;;8.43;;
11743;SDS011;5929;51.906;7.674;2023-04-07T08:53:57;12.02;;;8.68;;
11743;SDS011;5929;51.906;7.674;2023-04-07T08:56:31;12.10;;;8.75;;
11743;SDS011;5929;51.906;7.674;2023-04-07T08:59:04;10.57;;;8.05;;
11743;SDS011;5929;51.906;7.674;2023-04-07T09:01:32;11.30;;;8.65;;
11743;SDS011;5929;51.906;7.674;2023-04-07T09:04:00;11.18;;;7.93;;
11743;SDS011;5929;51.906;7.674;2023-04-07T09:06:30;12.18;;;8.20;;
11743;SDS011;5929;51.906;7.674;2023-04-07T09:08:57;13.75;;;8.55;;
11743;SDS011;5929;51.906;7.674;2023-04-07T09:11:24;11.88;;;8.25;;
11743;SDS011;5929;51.906;7.674;2023-04-07T09:13:52;10.52;;;7.93;;
11743;SDS011;5929;51.906;7.674;2023-04-07T09:16:19;10.27;;;7.95;;
11743;SDS011;5929;51.906;7.674;2023-04-07T09:18:47;11.05;;;7.68;;
11743;SDS011;5929;51.906;7.674;2023-04-07T09:21:14;11.43;;;8.63;;
11743;SDS011;5929;51.906;7.674;2023-04-07T09:23:42;12.07;;;8.30;;
11743;SDS011;5929;51.906;7.674;2023-04-07T09:26:20;11.45;;;7.90;;
11743;SDS011;5929;51.906;7.674;2023-04-07T09:28:50;11.90;;;8.40;;
11743;SDS011;5929;51.906;7.674;2023-04-07T09:31:19;10.88;;;7.85;;
11743;SDS011;5929;51.906;7.674;2023-04-07T09:33:47;9.75;;;6.97;;
11743;SDS011;5929;51.906;7.674;2023-04-07T09:36:14;9.73;;;7.43;;
11743;SDS011;5929;51.906;7.674;2023-04-07T09:38:43;10.07;;;7.18;;
11743;SDS011;5929;51.906;7.674;2023-04-07T09:41:11;9.63;;;7.35;;
11743;SDS011;5929;51.906;7.674;2023-04-07T09:43:39;8.63;;;6.20;;
11743;SDS011;5929;51.906;7.674;2023-04-07T09:46:09;9.30;;;6.75;;
11743;SDS011;5929;51.906;7.674;2023-04-07T09:48:36;11.38;;;6.85;;
11743;SDS011;5929;51.906;7.674;2023-04-07T09:51:07;9.57;;;6.50;;
11743;SDS011;5929;51.906;7.674;2023-04-07T09:53:43;13.68;;;8.18;;
11743;SDS011;5929;51.906;7.674;2023-04-07T09:56:12;16.80;;;10.02;;
11743;SDS011;5929;51.906;7.674;2023-04-07T09:58:41;12.40;;;8.82;;
11743;SDS011;5929;51.906;7.674;2023-04-07T10:01:09;10.32;;;6.97;;
11743;SDS011;5929;51.906;7.674;2023-04-07T10:03:37;11.52;;;7.60;;
11743;SDS011;5929;51.906;7.674;2023-04-07T10:06:04;8.75;;;6.65;;
11743;SDS011;5929;51.906;7.674;2023-04-07T10:08:32;9.20;;;6.30;;
11743;SDS011;5929;51.906;7.674;2023-04-07T10:11:02;13.35;;;7.15;;
11743;SDS011;5929;51.906;7.674;2023-04-07T10:13:31;12.27;;;8.07;;
11743;SDS011;5929;51.906;7.674;2023-04-07T10:15:59;10.50;;;7.65;;
11743;SDS011;5929;51.906;7.674;2023-04-07T10:18:29;11.65;;;7.78;;
11743;SDS011;5929;51.906;7.674;2023-04-07T10:20:57;11.10;;;8.20;;
11743;SDS011;5929;51.906;7.674;2023-04-07T10:23:28;11.02;;;7.22;;
11743;SDS011;5929;51.906;7.674;2023-04-07T10:26:03;10.50;;;6.65;;
11743;SDS011;5929;51.906;7.674;2023-04-07T10:28:31;9.07;;;6.25;;
11743;SDS011;5929;51.906;7.674;2023-04-07T10:31:03;10.27;;;5.97;;
11743;SDS011;5929;51.906;7.674;2023-04-07T10:33:43;8.15;;;5.47;;
11743;SDS011;5929;51.906;7.674;2023-04-07T10:36:15;9.15;;;6.60;;
11743;SDS011;5929;51.906;7.674;2023-04-07T10:38:57;8.50;;;5.95;;
11743;SDS011;5929;51.906;7.674;2023-04-07T10:41:46;7.95;;;5.13;;
11743;SDS011;5929;51.906;7.674;2023-04-07T10:47:11;6.93;;;4.22;;
11743;SDS011;5929;51.906;7.674;2023-04-07T10:49:38;9.60;;;4.43;;
11743;SDS011;5929;51.906;7.674;2023-04-07T10:52:25;8.68;;;4.30;;
11743;SDS011;5929;51.906;7.674;2023-04-07T11:01:15;6.03;;;3.50;;
11743;SDS011;5929;51.906;7.674;2023-04-07T11:03:52;6.63;;;3.83;;
11743;SDS011;5929;51.906;7.674;2023-04-07T11:06:21;6.60;;;3.90;;
11743;SDS011;5929;51.906;7.674;2023-04-07T11:08:51;5.63;;;3.60;;
11743;SDS011;5929;51.906;7.674;2023-04-07T11:11:19;5.90;;;3.67;;
11743;SDS011;5929;51.906;7.674;2023-04-07T11:14:07;7.80;;;4.90;;
11743;SDS011;5929;51.906;7.674;2023-04-07T11:16:36;6.15;;;3.97;;
11743;SDS011;5929;51.906;7.674;2023-04-07T11:19:04;7.72;;;4.03;;
11743;SDS011;5929;51.906;7.674;2023-04-07T11:21:31;5.88;;;3.83;;
11743;SDS011;5929;51.906;7.674;2023-04-07T11:23:58;6.78;;;3.47;;
11743;SDS011;5929;51.906;7.674;2023-04-07T11:26:25;6.07;;;3.80;;
11743;SDS011;5929;51.906;7.674;2023-04-07T11:28:54;5.30;;;3.10;;
11743;SDS011;5929;51.906;7.674;2023-04-07T11:31:24;5.60;;;3.33;;
11743;SDS011;5929;51.906;7.674;2023-04-07T11:33:52;4.80;;;2.90;;
11743;SDS011;5929;51.906;7.674;2023-04-07T11:36:26;5.82;;;3.53;;
11743;SDS011;5929;51.906;7.674;2023-04-07T11:38:54;5.63;;;3.30;;
11743;SDS011;5929;51.906;7.674;2023-04-07T11:41:21;5.38;;;3.38;;
11743;SDS011;5929;51.906;7.674;2023-04-07T11:44:02;5.28;;;3.58;;
11743;SDS011;5929;51.906;7.674;2023-04-07T11:46:31;5.60;;;3.60;;
11743;SDS011;5929;51.906;7.674;2023-04-07T11:49:07;6.05;;;3.83;;
11743;SDS011;5929;51.906;7.674;2023-04-07T11:51:35;5.95;;;3.38;;
11743;SDS011;5929;51.906;7.674;2023-04-07T11:54:02;7.53;;;3.67;;
11743;SDS011;5929;51.906;7.674;2023-04-07T11:56:29;5.53;;;3.63;;
11743;SDS011;5929;51.906;7.674;2023-04-07T11:59:07;5.18;;;3.03;;
11743;SDS011;5929;51.906;7.674;2023-04-07T12:01:39;5.82;;;3.15;;
11743;SDS011;5929;51.906;7.674;2023-04-07T12:04:10;6.10;;;3.90;;
11743;SDS011;5929;51.906;7.674;2023-04-07T12:06:42;6.05;;;4.13;;
11743;SDS011;5929;51.906;7.674;2023-04-07T12:09:24;6.03;;;3.30;;
11743;SDS011;5929;51.906;7.674;2023-04-07T12:11:56;12.88;;;7.07;;
11743;SDS011;5929;51.906;7.674;2023-04-07T12:14:23;16.15;;;9.07;;
11743;SDS011;5929;51.906;7.674;2023-04-07T12:16:53;10.85;;;6.15;;
11743;SDS011;5929;51.906;7.674;2023-04-07T12:19:27;11.60;;;5.70;;
11743;SDS011;5929;51.906;7.674;2023-04-07T12:21:56;8.93;;;5.50;;
11743;SDS011;5929;51.906;7.674;2023-04-07T12:24:23;10.70;;;6.25;;
11743;SDS011;5929;51.906;7.674;2023-04-07T12:26:51;16.08;;;9.18;;
11743;SDS011;5929;51.906;7.674;2023-04-07T12:29:18;9.93;;;6.53;;
11743;SDS011;5929;51.906;7.674;2023-04-07T12:31:45;5.80;;;3.53;;
11743;SDS011;5929;51.906;7.674;2023-04-07T12:34:13;5.75;;;3.63;;
11743;SDS011;5929;51.906;7.674;2023-04-07T12:36:40;7.63;;;4.72;;
11743;SDS011;5929;51.906;7.674;2023-04-07T12:39:08;6.03;;;3.97;;
11743;SDS011;5929;51.906;7.674;2023-04-07T12:41:35;7.63;;;4.97;;
11743;SDS011;5929;51.906;7.674;2023-04-07T12:44:03;6.47;;;4.50;;
11743;SDS011;5929;51.906;7.674;2023-04-07T12:46:30;6.38;;;4.00;;
11743;SDS011;5929;51.906;7.674;2023-04-07T12:48:57;6.97;;;4.35;;
11743;SDS011;5929;51.906;7.674;2023-04-07T12:51:26;6.20;;;4.15;;
11743;SDS011;5929;51.906;7.674;2023-04-07T12:53:53;6.13;;;4.15;;
11743;SDS011;5929;51.906;7.674;2023-04-07T12:56:20;7.03;;;4.60;;
11743;SDS011;5929;51.906;7.674;2023-04-07T12:58:48;6.07;;;4.00;;
11743;SDS011;5929;51.906;7.674;2023-04-07T13:01:14;6.45;;;4.15;;
11743;SDS011;5929;51.906;7.674;2023-04-07T13:03:41;6.32;;;3.97;;
11743;SDS011;5929;51.906;7.674;2023-04-07T13:06:08;5.82;;;3.80;;
11743;SDS011;5929;51.906;7.674;2023-04-07T13:08:37;5.57;;;3.55;;
11743;SDS011;5929;51.906;7.674;2023-04-07T13:11:04;6.30;;;4.05;;
11743;SDS011;5929;51.906;7.674;2023-04-07T13:13:31;5.65;;;3.83;;
11743;SDS011;5929;51.906;7.674;2023-04-07T13:15:58;5.03;;;3.25;;
11743;SDS011;5929;51.906;7.674;2023-04-07T13:18:25;5.30;;;3.10;;
11743;SDS011;5929;51.906;7.674;2023-04-07T13:20:52;5.63;;;3.20;;
11743;SDS011;5929;51.906;7.674;2023-04-07T13:23:19;5.78;;;3.45;;
11743;SDS011;5929;51.906;7.674;2023-04-07T13:25:47;4.53;;;2.40;;
11743;SDS011;5929;51.906;7.674;2023-04-07T13:28:16;6.88;;;2.83;;
11743;SDS011;5929;51.906;7.674;2023-04-07T13:30:45;4.60;;;2.67;;
11743;SDS011;5929;51.906;7.674;2023-04-07T13:33:12;5.38;;;2.92;;
11743;SDS011;5929;51.906;7.674;2023-04-07T13:35:38;4.65;;;2.72;;
11743;SDS011;5929;51.906;7.674;2023-04-07T13:38:05;6.45;;;2.92;;
11743;SDS011;5929;51.906;7.674;2023-04-07T13:40:33;4.45;;;2.60;;
11743;SDS011;5929;51.906;7.674;2023-04-07T13:43:01;4.43;;;2.38;;
11743;SDS011;5929;51.906;7.674;2023-04-07T13:45:28;5.80;;;2.83;;
11743;SDS011;5929;51.906;7.674;2023-04-07T13:47:55;5.43;;;2.50;;
11743;SDS011;5929;51.906;7.674;2023-04-07T13:50:21;4.50;;;2.60;;
11743;SDS011;5929;51.906;7.674;2023-04-07T13:52:48;4.63;;;2.40;;
11743;SDS011;5929;51.906;7.674;2023-04-07T13:55:15;4.35;;;2.75;;
11743;SDS011;5929;51.906;7.674;2023-04-07T13:57:46;4.35;;;2.50;;
11743;SDS011;5929;51.906;7.674;2023-04-07T14:00:15;4.95;;;3.05;;
11743;SDS011;5929;51.906;7.674;2023-04-07T14:02:42;4.35;;;2.65;;
11743;SDS011;5929;51.906;7.674;2023-04-07T14:05:11;4.07;;;2.33;;
11743;SDS011;5929;51.906;7.674;2023-04-07T14:07:38;4.75;;;2.88;;
11743;SDS011;5929;51.906;7.674;2023-04-07T14:10:05;4.25;;;2.55;;
11743;SDS011;5929;51.906;7.674;2023-04-07T14:12:32;5.20;;;2.70;;
11743;SDS011;5929;51.906;7.674;2023-04-07T14:14:59;3.97;;;2.40;;
11743;SDS011;5929;51.906;7.674;2023-04-07T14:17:28;4.63;;;3.08;;
11743;SDS011;5929;51.906;7.674;2023-04-07T14:19:55;5.55;;;3.00;;
11743;SDS011;5929;51.906;7.674;2023-04-07T14:22:22;4.63;;;3.03;;
11743;SDS011;5929;51.906;7.674;2023-04-07T14:24:49;5.45;;;2.72;;
11743;SDS011;5929;51.906;7.674;2023-04-07T14:27:16;4.05;;;2.60;;
11743;SDS011;5929;51.906;7.674;2023-04-07T14:29:45;4.80;;;2.10;;
11743;SDS011;5929;51.906;7.674;2023-04-07T14:32:11;4.57;;;2.40;;
11743;SDS011;5929;51.906;7.674;2023-04-07T14:34:40;4.00;;;2.28;;
11743;SDS011;5929;51.906;7.674;2023-04-07T14:37:06;6.15;;;3.08;;
11743;SDS011;5929;51.906;7.674;2023-04-07T14:39:33;4.95;;;2.72;;
11743;SDS011;5929;51.906;7.674;2023-04-07T14:42:00;4.53;;;2.60;;
11743;SDS011;5929;51.906;7.674;2023-04-07T14:44:27;4.90;;;2.50;;
11743;SDS011;5929;51.906;7.674;2023-04-07T14:46:55;4.15;;;1.95;;
11743;SDS011;5929;51.906;7.674;2023-04-07T14:49:22;4.30;;;1.90;;
11743;SDS011;5929;51.906;7.674;2023-04-07T14:51:53;4.63;;;2.60;;
11743;SDS011;5929;51.906;7.674;2023-04-07T14:54:20;4.65;;;2.47;;
11743;SDS011;5929;51.906;7.674;2023-04-07T14:56:49;5.10;;;2.15;;
11743;SDS011;5929;51.906;7.674;2023-04-07T14:59:16;4.50;;;2.30;;
11743;SDS011;5929;51.906;7.674;2023-04-07T15:01:43;4.82;;;2.47;;